テルアビブ / ベン・グリオン の空港の天気 - METARとTAF

ベン・グリオン国際空港(テルアビブ) ( LLBG / TLV ) - イスラエル ロード / テルアビブ
飛行場実況気象(Metar)
観測時間11/30 18:20 IST (11/30 16:20 UTC)
風向・風速不定 1m/s
視程10km以上
天気現象
少しの雲 雲底高度 1490m
気温19℃
湿度73%
気圧1016hPa
METARLLBG 301620Z VRB02KT 9999 FEW049 19/14 Q1016 NOSIG
過去の天気等 Google飛行場航空写真 Wunderground天気予報

過去48時間のMETAR

飛行場予報(TAF)
発表時間: 11/30 13:03 IST (11/30 11:03 UTC)
予報対象時間: 30日14時 IST ~ 1日14時 IST
風向・風速西南西 5m/s
視程10km以上
少しの雲 雲底高度 1070m
30日17時 IST ~ 30日19時 IST に徐々に
風向・風速不定 2m/s
視程10km以上
なし
30日19時 IST ~ 1日9時 IST に一時的に
風向・風速東南東 3m/s
1日9時 IST ~ 1日11時 IST に徐々に
風向・風速西北西 4m/s
TAF LLBG 301103Z 3012/0112 25010KT 9999 FEW035
BECMG 3015/3017 VRB03KT CAVOK
TEMPO 3017/0107 12005KT
BECMG 0107/0109 29008KT TX22/3012Z TN14/0104Z